TAF Text Data
IDs:
Format:
Raw Decoded Include METAR

Data at: 1218 UTC 17 Sep 2019

KTUP 171133Z 1712/1812 VRB02KT P6SM SKC
  FM171700 36004KT P6SM FEW060
  FM180100 VRB02KT P6SM SKC